TAF and METAR

METAR for Gorgan Airport

OING 311100Z 26010KT 9999 SCT025 OVC080 26/18 Q1015 NOSIG
Report created 31. mai 13:00
wind 10 knots from W (260°) visibility > 10km scattered clouds (~50% cover) at 2500 feet overcast at 8000 feet Temperature 26° with dewpoint at 18° (Humidity 61.44%) Pressure 1015 hPa no significant weather change expected the next couple of hours
No TAF available for Gorgan Airport